sensor_id;sensor_type;location;lat;lon;timestamp;pressure;altitude;pressure_sealevel;temperature;humidity
41254;BME280;26987;59.928;30.306;2023-04-05T00:00:12;102166.31;;;-0.11;100.00
41254;BME280;26987;59.928;30.306;2023-04-05T00:02:40;102182.59;;;-0.05;100.00
41254;BME280;26987;59.928;30.306;2023-04-05T00:05:09;102182.59;;;-0.05;100.00
41254;BME280;26987;59.928;30.306;2023-04-05T00:07:38;102183.44;;;-0.04;100.00
41254;BME280;26987;59.928;30.306;2023-04-05T00:10:10;102190.22;;;0.00;100.00
41254;BME280;26987;59.928;30.306;2023-04-05T00:12:37;102196.22;;;0.02;100.00
41254;BME280;26987;59.928;30.306;2023-04-05T00:15:09;102193.97;;;-0.04;100.00
41254;BME280;26987;59.928;30.306;2023-04-05T00:17:38;102193.38;;;0.05;100.00
41254;BME280;26987;59.928;30.306;2023-04-05T00:20:08;102209.50;;;0.01;100.00
41254;BME280;26987;59.928;30.306;2023-04-05T00:22:37;102201.88;;;-0.04;100.00
41254;BME280;26987;59.928;30.306;2023-04-05T00:25:05;102192.50;;;-0.08;100.00
41254;BME280;26987;59.928;30.306;2023-04-05T00:27:33;102207.63;;;0.03;100.00
41254;BME280;26987;59.928;30.306;2023-04-05T00:30:01;102208.25;;;0.06;100.00
41254;BME280;26987;59.928;30.306;2023-04-05T00:32:29;102211.53;;;0.10;100.00
41254;BME280;26987;59.928;30.306;2023-04-05T00:34:58;102211.94;;;0.04;100.00
41254;BME280;26987;59.928;30.306;2023-04-05T00:37:26;102198.94;;;0.01;100.00
41254;BME280;26987;59.928;30.306;2023-04-05T00:39:54;102200.97;;;-0.03;100.00
41254;BME280;26987;59.928;30.306;2023-04-05T00:42:23;102204.72;;;-0.07;100.00
41254;BME280;26987;59.928;30.306;2023-04-05T00:44:50;102189.63;;;-0.18;100.00
41254;BME280;26987;59.928;30.306;2023-04-05T00:47:18;102203.91;;;-0.08;100.00
41254;BME280;26987;59.928;30.306;2023-04-05T00:49:48;102184.44;;;-0.20;100.00
41254;BME280;26987;59.928;30.306;2023-04-05T00:52:19;102208.50;;;-0.11;100.00
41254;BME280;26987;59.928;30.306;2023-04-05T00:54:48;102204.91;;;-0.10;100.00
41254;BME280;26987;59.928;30.306;2023-04-05T00:57:17;102213.59;;;-0.08;100.00
41254;BME280;26987;59.928;30.306;2023-04-05T00:59:45;102205.78;;;-0.10;100.00
41254;BME280;26987;59.928;30.306;2023-04-05T01:02:17;102213.03;;;-0.14;100.00
41254;BME280;26987;59.928;30.306;2023-04-05T01:04:57;102205.13;;;-0.14;100.00
41254;BME280;26987;59.928;30.306;2023-04-05T01:07:34;102211.91;;;-0.09;100.00
41254;BME280;26987;59.928;30.306;2023-04-05T01:10:05;102205.34;;;-0.17;100.00
41254;BME280;26987;59.928;30.306;2023-04-05T01:12:36;102196.03;;;-0.22;100.00
41254;BME280;26987;59.928;30.306;2023-04-05T01:15:06;102201.59;;;-0.27;100.00
41254;BME280;26987;59.928;30.306;2023-04-05T01:17:34;102204.78;;;-0.22;100.00
41254;BME280;26987;59.928;30.306;2023-04-05T01:20:06;102211.44;;;-0.16;100.00
41254;BME280;26987;59.928;30.306;2023-04-05T01:23:04;102211.72;;;-0.06;100.00
41254;BME280;26987;59.928;30.306;2023-04-05T01:26:15;102183.13;;;-0.27;100.00
41254;BME280;26987;59.928;30.306;2023-04-05T01:31:46;102225.38;;;-0.14;100.00
41254;BME280;26987;59.928;30.306;2023-04-05T01:34:23;102226.22;;;-0.14;100.00
41254;BME280;26987;59.928;30.306;2023-04-05T01:36:54;102204.78;;;-0.22;100.00
41254;BME280;26987;59.928;30.306;2023-04-05T01:39:23;102217.56;;;-0.16;100.00
41254;BME280;26987;59.928;30.306;2023-04-05T01:41:57;102217.47;;;-0.14;100.00
41254;BME280;26987;59.928;30.306;2023-04-05T01:44:26;102225.47;;;-0.16;100.00
41254;BME280;26987;59.928;30.306;2023-04-05T01:46:56;102214.19;;;-0.18;100.00
41254;BME280;26987;59.928;30.306;2023-04-05T01:49:24;102220.22;;;-0.16;100.00
41254;BME280;26987;59.928;30.306;2023-04-05T01:51:52;102208.56;;;-0.26;100.00
41254;BME280;26987;59.928;30.306;2023-04-05T01:54:20;102230.19;;;-0.21;100.00
41254;BME280;26987;59.928;30.306;2023-04-05T01:56:48;102229.38;;;-0.21;100.00
41254;BME280;26987;59.928;30.306;2023-04-05T01:59:16;102230.28;;;-0.22;100.00
41254;BME280;26987;59.928;30.306;2023-04-05T02:01:44;102225.97;;;-0.23;100.00
41254;BME280;26987;59.928;30.306;2023-04-05T02:04:13;102234.28;;;-0.30;100.00
41254;BME280;26987;59.928;30.306;2023-04-05T02:06:41;102235.22;;;-0.31;100.00
41254;BME280;26987;59.928;30.306;2023-04-05T02:09:09;102233.63;;;-0.33;100.00
41254;BME280;26987;59.928;30.306;2023-04-05T02:11:36;102220.94;;;-0.41;100.00
41254;BME280;26987;59.928;30.306;2023-04-05T02:14:04;102229.47;;;-0.23;100.00
41254;BME280;26987;59.928;30.306;2023-04-05T02:16:32;102235.31;;;-0.32;100.00
41254;BME280;26987;59.928;30.306;2023-04-05T02:19:00;102229.09;;;-0.31;100.00
41254;BME280;26987;59.928;30.306;2023-04-05T02:21:30;102230.72;;;-0.29;100.00
41254;BME280;26987;59.928;30.306;2023-04-05T02:23:58;102222.81;;;-0.29;100.00
41254;BME280;26987;59.928;30.306;2023-04-05T02:26:25;102216.28;;;-0.23;100.00
41254;BME280;26987;59.928;30.306;2023-04-05T02:28:53;102217.97;;;-0.22;100.00
41254;BME280;26987;59.928;30.306;2023-04-05T02:31:21;102216.69;;;-0.29;100.00
41254;BME280;26987;59.928;30.306;2023-04-05T02:33:49;102192.47;;;-0.36;100.00
41254;BME280;26987;59.928;30.306;2023-04-05T02:36:17;102214.75;;;-0.27;100.00
41254;BME280;26987;59.928;30.306;2023-04-05T02:38:46;102225.88;;;-0.22;100.00
41254;BME280;26987;59.928;30.306;2023-04-05T02:41:14;102236.44;;;-0.22;100.00
41254;BME280;26987;59.928;30.306;2023-04-05T02:43:43;102217.41;;;-0.27;100.00
41254;BME280;26987;59.928;30.306;2023-04-05T02:46:11;102215.53;;;-0.25;100.00
41254;BME280;26987;59.928;30.306;2023-04-05T02:48:41;102225.78;;;-0.20;100.00
41254;BME280;26987;59.928;30.306;2023-04-05T02:51:11;102228.66;;;-0.10;100.00
41254;BME280;26987;59.928;30.306;2023-04-05T02:53:40;102231.63;;;-0.15;100.00
41254;BME280;26987;59.928;30.306;2023-04-05T02:56:14;102222.09;;;-0.18;100.00
41254;BME280;26987;59.928;30.306;2023-04-05T02:58:44;102220.31;;;-0.17;100.00
41254;BME280;26987;59.928;30.306;2023-04-05T03:01:18;102222.38;;;-0.22;100.00
41254;BME280;26987;59.928;30.306;2023-04-05T03:03:46;102225.38;;;-0.14;100.00
41254;BME280;26987;59.928;30.306;2023-04-05T03:06:14;102232.44;;;-0.15;100.00
41254;BME280;26987;59.928;30.306;2023-04-05T03:08:46;102224.72;;;-0.18;100.00
41254;BME280;26987;59.928;30.306;2023-04-05T03:11:20;102222.28;;;-0.21;100.00
41254;BME280;26987;59.928;30.306;2023-04-05T03:13:52;102230.00;;;-0.18;100.00
41254;BME280;26987;59.928;30.306;2023-04-05T03:16:37;102224.94;;;-0.21;100.00
41254;BME280;26987;59.928;30.306;2023-04-05T03:19:12;102223.03;;;-0.19;100.00
41254;BME280;26987;59.928;30.306;2023-04-05T03:21:44;102232.44;;;-0.15;100.00
41254;BME280;26987;59.928;30.306;2023-04-05T03:24:25;102233.50;;;-0.17;100.00
41254;BME280;26987;59.928;30.306;2023-04-05T03:27:00;102238.66;;;-0.16;100.00
41254;BME280;26987;59.928;30.306;2023-04-05T03:29:33;102225.31;;;-0.27;100.00
41254;BME280;26987;59.928;30.306;2023-04-05T03:32:09;102195.72;;;-0.45;100.00
41254;BME280;26987;59.928;30.306;2023-04-05T03:34:45;102244.25;;;-0.20;100.00
41254;BME280;26987;59.928;30.306;2023-04-05T03:37:15;102233.03;;;-0.24;100.00
41254;BME280;26987;59.928;30.306;2023-04-05T03:39:49;102236.31;;;-0.20;100.00
41254;BME280;26987;59.928;30.306;2023-04-05T03:42:19;102240.56;;;-0.18;100.00
41254;BME280;26987;59.928;30.306;2023-04-05T03:44:51;102239.41;;;-0.14;100.00
41254;BME280;26987;59.928;30.306;2023-04-05T03:47:19;102248.56;;;-0.19;100.00
41254;BME280;26987;59.928;30.306;2023-04-05T03:49:47;102254.50;;;-0.16;100.00
41254;BME280;26987;59.928;30.306;2023-04-05T03:52:15;102251.75;;;-0.14;100.00
41254;BME280;26987;59.928;30.306;2023-04-05T03:54:45;102253.50;;;-0.28;100.00
41254;BME280;26987;59.928;30.306;2023-04-05T03:57:16;102251.47;;;-0.24;100.00
41254;BME280;26987;59.928;30.306;2023-04-05T03:59:46;102270.31;;;-0.16;100.00
41254;BME280;26987;59.928;30.306;2023-04-05T04:02:15;102266.81;;;-0.16;100.00
41254;BME280;26987;59.928;30.306;2023-04-05T04:04:43;102265.22;;;-0.19;100.00
41254;BME280;26987;59.928;30.306;2023-04-05T04:07:12;102266.91;;;-0.18;100.00
41254;BME280;26987;59.928;30.306;2023-04-05T04:09:40;102263.25;;;-0.15;100.00
41254;BME280;26987;59.928;30.306;2023-04-05T04:12:10;102259.56;;;-0.13;100.00
41254;BME280;26987;59.928;30.306;2023-04-05T04:14:48;102263.41;;;-0.04;100.00
41254;BME280;26987;59.928;30.306;2023-04-05T04:17:48;102272.19;;;-0.03;100.00
41254;BME280;26987;59.928;30.306;2023-04-05T04:20:28;102279.03;;;-0.01;100.00
41254;BME280;26987;59.928;30.306;2023-04-05T04:23:16;102292.94;;;0.02;100.00
41254;BME280;26987;59.928;30.306;2023-04-05T04:26:13;102291.16;;;0.02;100.00
41254;BME280;26987;59.928;30.306;2023-04-05T04:28:52;102294.84;;;-0.01;100.00
41254;BME280;26987;59.928;30.306;2023-04-05T04:31:35;102294.97;;;-0.02;100.00
41254;BME280;26987;59.928;30.306;2023-04-05T04:34:36;102293.28;;;-0.03;100.00
41254;BME280;26987;59.928;30.306;2023-04-05T04:37:28;102295.91;;;-0.03;100.00
41254;BME280;26987;59.928;30.306;2023-04-05T04:40:27;102294.19;;;-0.04;100.00
41254;BME280;26987;59.928;30.306;2023-04-05T04:43:16;102280.09;;;-0.03;100.00
41254;BME280;26987;59.928;30.306;2023-04-05T04:45:58;102289.72;;;-0.17;100.00
41254;BME280;26987;59.928;30.306;2023-04-05T04:48:38;102298.19;;;-0.11;100.00
41254;BME280;26987;59.928;30.306;2023-04-05T04:51:25;102306.00;;;-0.10;100.00
41254;BME280;26987;59.928;30.306;2023-04-05T04:53:52;102311.16;;;-0.08;100.00
41254;BME280;26987;59.928;30.306;2023-04-05T04:56:21;102308.44;;;-0.07;100.00
41254;BME280;26987;59.928;30.306;2023-04-05T04:58:51;102318.88;;;-0.05;100.00
41254;BME280;26987;59.928;30.306;2023-04-05T05:01:19;102321.53;;;-0.05;100.00
41254;BME280;26987;59.928;30.306;2023-04-05T05:03:49;102333.75;;;-0.04;100.00
41254;BME280;26987;59.928;30.306;2023-04-05T05:06:36;102336.31;;;-0.03;100.00
41254;BME280;26987;59.928;30.306;2023-04-05T05:09:04;102325.84;;;-0.04;100.00
41254;BME280;26987;59.928;30.306;2023-04-05T05:11:37;102330.63;;;0.04;100.00
41254;BME280;26987;59.928;30.306;2023-04-05T05:14:08;102330.53;;;0.05;100.00
41254;BME280;26987;59.928;30.306;2023-04-05T05:16:35;102343.25;;;0.13;100.00
41254;BME280;26987;59.928;30.306;2023-04-05T05:19:05;102343.34;;;0.11;100.00
41254;BME280;26987;59.928;30.306;2023-04-05T05:21:53;102347.03;;;0.09;100.00
41254;BME280;26987;59.928;30.306;2023-04-05T05:24:21;102355.59;;;0.12;100.00
41254;BME280;26987;59.928;30.306;2023-04-05T05:26:49;102353.81;;;0.13;100.00
41254;BME280;26987;59.928;30.306;2023-04-05T05:29:18;102361.44;;;0.18;100.00
41254;BME280;26987;59.928;30.306;2023-04-05T05:31:49;102350.22;;;0.14;100.00
41254;BME280;26987;59.928;30.306;2023-04-05T05:34:18;102370.25;;;0.31;100.00
41254;BME280;26987;59.928;30.306;2023-04-05T05:36:53;102365.69;;;0.33;100.00
41254;BME280;26987;59.928;30.306;2023-04-05T05:39:21;102335.03;;;0.18;100.00
41254;BME280;26987;59.928;30.306;2023-04-05T05:41:50;102359.09;;;0.41;100.00
41254;BME280;26987;59.928;30.306;2023-04-05T05:44:18;102372.72;;;0.47;100.00
41254;BME280;26987;59.928;30.306;2023-04-05T05:46:45;102370.66;;;0.53;100.00
41254;BME280;26987;59.928;30.306;2023-04-05T05:49:13;102361.13;;;0.50;100.00
41254;BME280;26987;59.928;30.306;2023-04-05T05:51:43;102368.50;;;0.45;100.00
41254;BME280;26987;59.928;30.306;2023-04-05T05:54:11;102368.13;;;0.51;100.00
41254;BME280;26987;59.928;30.306;2023-04-05T05:56:38;102354.81;;;0.53;100.00
41254;BME280;26987;59.928;30.306;2023-04-05T05:59:06;102366.16;;;0.68;100.00
41254;BME280;26987;59.928;30.306;2023-04-05T06:01:35;102349.38;;;0.69;100.00
41254;BME280;26987;59.928;30.306;2023-04-05T06:04:03;102363.94;;;0.74;100.00
41254;BME280;26987;59.928;30.306;2023-04-05T06:06:31;102374.81;;;0.70;100.00
41254;BME280;26987;59.928;30.306;2023-04-05T06:09:02;102365.00;;;0.72;100.00
41254;BME280;26987;59.928;30.306;2023-04-05T06:11:30;102366.16;;;0.68;100.00
41254;BME280;26987;59.928;30.306;2023-04-05T06:13:58;102378.22;;;0.72;100.00
41254;BME280;26987;59.928;30.306;2023-04-05T06:16:25;102369.63;;;0.68;100.00
41254;BME280;26987;59.928;30.306;2023-04-05T06:18:54;102381.91;;;0.69;100.00
41254;BME280;26987;59.928;30.306;2023-04-05T06:21:22;102380.75;;;0.73;100.00
41254;BME280;26987;59.928;30.306;2023-04-05T06:23:50;102371.97;;;0.73;100.00
41254;BME280;26987;59.928;30.306;2023-04-05T06:26:21;102381.47;;;0.75;100.00
41254;BME280;26987;59.928;30.306;2023-04-05T06:28:52;102379.78;;;0.74;100.00
41254;BME280;26987;59.928;30.306;2023-04-05T06:31:25;102378.00;;;0.75;100.00
41254;BME280;26987;59.928;30.306;2023-04-05T06:33:53;102380.94;;;0.70;100.00
41254;BME280;26987;59.928;30.306;2023-04-05T06:36:22;102387.63;;;0.76;100.00
41254;BME280;26987;59.928;30.306;2023-04-05T06:38:50;102390.06;;;0.79;100.00
41254;BME280;26987;59.928;30.306;2023-04-05T06:41:20;102378.13;;;0.86;100.00
41254;BME280;26987;59.928;30.306;2023-04-05T06:43:48;102362.78;;;0.79;100.00
41254;BME280;26987;59.928;30.306;2023-04-05T06:46:16;102381.94;;;0.95;100.00
41254;BME280;26987;59.928;30.306;2023-04-05T06:48:44;102381.84;;;0.97;100.00
41254;BME280;26987;59.928;30.306;2023-04-05T06:51:13;102389.81;;;1.10;100.00
41254;BME280;26987;59.928;30.306;2023-04-05T06:53:40;102380.72;;;1.14;100.00
41254;BME280;26987;59.928;30.306;2023-04-05T06:56:08;102396.38;;;1.30;100.00
41254;BME280;26987;59.928;30.306;2023-04-05T06:58:38;102361.16;;;1.17;100.00
41254;BME280;26987;59.928;30.306;2023-04-05T07:01:05;102391.31;;;1.40;100.00
41254;BME280;26987;59.928;30.306;2023-04-05T07:03:33;102401.03;;;1.40;100.00
41254;BME280;26987;59.928;30.306;2023-04-05T07:06:01;102385.41;;;1.36;100.00
41254;BME280;26987;59.928;30.306;2023-04-05T07:08:31;102398.72;;;1.48;100.00
41254;BME280;26987;59.928;30.306;2023-04-05T07:10:59;102405.25;;;1.55;100.00
41254;BME280;26987;59.928;30.306;2023-04-05T07:13:27;102357.28;;;1.35;100.00
41254;BME280;26987;59.928;30.306;2023-04-05T07:16:00;102401.47;;;1.72;100.00
41254;BME280;26987;59.928;30.306;2023-04-05T07:18:28;102388.31;;;1.97;99.61
41254;BME280;26987;59.928;30.306;2023-04-05T07:20:58;102411.00;;;2.12;99.09
41254;BME280;26987;59.928;30.306;2023-04-05T07:23:30;102418.13;;;2.12;97.93
41254;BME280;26987;59.928;30.306;2023-04-05T07:25:59;102423.22;;;2.15;97.96
41254;BME280;26987;59.928;30.306;2023-04-05T07:28:30;102409.44;;;2.23;96.88
41254;BME280;26987;59.928;30.306;2023-04-05T07:31:02;102399.38;;;2.15;97.46
41254;BME280;26987;59.928;30.306;2023-04-05T07:33:30;102405.97;;;2.34;97.02
41254;BME280;26987;59.928;30.306;2023-04-05T07:35:58;102407.84;;;2.45;96.62
41254;BME280;26987;59.928;30.306;2023-04-05T07:38:26;102412.94;;;2.48;96.25
41254;BME280;26987;59.928;30.306;2023-04-05T07:40:54;102419.47;;;2.55;94.95
41254;BME280;26987;59.928;30.306;2023-04-05T07:43:22;102411.03;;;2.50;95.44
41254;BME280;26987;59.928;30.306;2023-04-05T07:45:50;102355.41;;;2.25;95.48
41254;BME280;26987;59.928;30.306;2023-04-05T07:48:21;102404.78;;;2.75;95.28
41254;BME280;26987;59.928;30.306;2023-04-05T07:50:49;102404.94;;;2.97;94.21
41254;BME280;26987;59.928;30.306;2023-04-05T07:53:18;102404.72;;;3.00;93.60
41254;BME280;26987;59.928;30.306;2023-04-05T07:55:46;102414.16;;;3.04;92.18
41254;BME280;26987;59.928;30.306;2023-04-05T07:58:13;102402.06;;;3.00;92.64
41254;BME280;26987;59.928;30.306;2023-04-05T08:00:41;102412.72;;;3.11;92.22
41254;BME280;26987;59.928;30.306;2023-04-05T08:03:09;102416.38;;;3.22;91.41
41254;BME280;26987;59.928;30.306;2023-04-05T08:05:38;102416.38;;;3.22;91.22
41254;BME280;26987;59.928;30.306;2023-04-05T08:08:06;102406.47;;;3.24;91.79
41254;BME280;26987;59.928;30.306;2023-04-05T08:10:37;102400.59;;;3.32;90.83
41254;BME280;26987;59.928;30.306;2023-04-05T08:13:06;102417.34;;;3.44;91.15
41254;BME280;26987;59.928;30.306;2023-04-05T08:15:34;102410.13;;;3.34;90.07
41254;BME280;26987;59.928;30.306;2023-04-05T08:18:01;102409.03;;;3.37;90.18
41254;BME280;26987;59.928;30.306;2023-04-05T08:20:29;102421.97;;;3.42;90.79
41254;BME280;26987;59.928;30.306;2023-04-05T08:22:59;102413.16;;;3.41;90.89
41254;BME280;26987;59.928;30.306;2023-04-05T08:25:26;102424.84;;;3.38;90.67
41254;BME280;26987;59.928;30.306;2023-04-05T08:27:54;102428.31;;;3.39;91.04
41254;BME280;26987;59.928;30.306;2023-04-05T08:30:22;102413.88;;;3.43;90.72
41254;BME280;26987;59.928;30.306;2023-04-05T08:32:50;102407.84;;;3.41;90.27
41254;BME280;26987;59.928;30.306;2023-04-05T08:35:18;102414.94;;;3.40;90.76
41254;BME280;26987;59.928;30.306;2023-04-05T08:37:45;102427.97;;;3.44;90.94
41254;BME280;26987;59.928;30.306;2023-04-05T08:40:15;102421.97;;;3.53;90.70
41254;BME280;26987;59.928;30.306;2023-04-05T08:42:49;102415.34;;;3.59;90.40
41254;BME280;26987;59.928;30.306;2023-04-05T08:45:19;102434.75;;;3.48;90.73
41254;BME280;26987;59.928;30.306;2023-04-05T08:47:51;102420.47;;;3.37;91.01
41254;BME280;26987;59.928;30.306;2023-04-05T08:50:19;102404.16;;;3.08;91.35
41254;BME280;26987;59.928;30.306;2023-04-05T08:52:49;102434.13;;;3.33;91.65
41254;BME280;26987;59.928;30.306;2023-04-05T08:55:19;102441.84;;;3.47;91.57
41254;BME280;26987;59.928;30.306;2023-04-05T08:57:49;102433.03;;;3.35;91.40
41254;BME280;26987;59.928;30.306;2023-04-05T09:00:20;102431.38;;;3.46;90.65
41254;BME280;26987;59.928;30.306;2023-04-05T09:02:51;102428.00;;;3.55;90.15
41254;BME280;26987;59.928;30.306;2023-04-05T09:05:22;102452.13;;;3.63;89.77
41254;BME280;26987;59.928;30.306;2023-04-05T09:07:51;102444.88;;;3.54;89.93
41254;BME280;26987;59.928;30.306;2023-04-05T09:10:21;102454.88;;;3.62;90.41
41254;BME280;26987;59.928;30.306;2023-04-05T09:12:50;102446.56;;;3.66;90.23
41254;BME280;26987;59.928;30.306;2023-04-05T09:15:20;102446.09;;;3.61;89.73
41254;BME280;26987;59.928;30.306;2023-04-05T09:17:49;102437.41;;;3.71;89.75
41254;BME280;26987;59.928;30.306;2023-04-05T09:20:18;102442.72;;;3.71;88.49
41254;BME280;26987;59.928;30.306;2023-04-05T09:22:46;102443.06;;;3.66;89.75
41254;BME280;26987;59.928;30.306;2023-04-05T09:25:34;102440.91;;;3.83;90.25
41254;BME280;26987;59.928;30.306;2023-04-05T09:28:04;102433.06;;;3.70;89.35
41254;BME280;26987;59.928;30.306;2023-04-05T09:30:33;102441.78;;;3.83;88.93
41254;BME280;26987;59.928;30.306;2023-04-05T09:33:03;102446.97;;;3.85;89.29
41254;BME280;26987;59.928;30.306;2023-04-05T09:35:35;102446.84;;;3.86;89.31
41254;BME280;26987;59.928;30.306;2023-04-05T09:38:04;102445.63;;;3.79;88.86
41254;BME280;26987;59.928;30.306;2023-04-05T09:40:42;102441.41;;;3.99;88.96
41254;BME280;26987;59.928;30.306;2023-04-05T09:43:11;102432.97;;;3.94;89.10
41254;BME280;26987;59.928;30.306;2023-04-05T09:45:40;102441.53;;;4.09;88.88
41254;BME280;26987;59.928;30.306;2023-04-05T09:48:08;102450.81;;;4.15;87.51
41254;BME280;26987;59.928;30.306;2023-04-05T09:50:37;102457.94;;;4.26;87.55
41254;BME280;26987;59.928;30.306;2023-04-05T09:53:09;102443.34;;;4.20;87.78
41254;BME280;26987;59.928;30.306;2023-04-05T09:55:42;102450.91;;;4.25;87.26
41254;BME280;26987;59.928;30.306;2023-04-05T09:58:11;102466.72;;;4.26;86.65
41254;BME280;26987;59.928;30.306;2023-04-05T10:00:47;102444.41;;;4.18;87.45
41254;BME280;26987;59.928;30.306;2023-04-05T10:03:18;102467.56;;;4.50;86.98
41254;BME280;26987;59.928;30.306;2023-04-05T10:05:54;102470.09;;;4.51;86.00
41254;BME280;26987;59.928;30.306;2023-04-05T10:08:22;102470.69;;;4.44;86.18
41254;BME280;26987;59.928;30.306;2023-04-05T10:10:53;102472.25;;;4.58;86.71
41254;BME280;26987;59.928;30.306;2023-04-05T10:13:22;102473.69;;;4.50;85.89
41254;BME280;26987;59.928;30.306;2023-04-05T10:15:53;102470.53;;;4.57;86.46
41254;BME280;26987;59.928;30.306;2023-04-05T10:18:23;102462.59;;;4.45;86.22
41254;BME280;26987;59.928;30.306;2023-04-05T10:20:57;102477.03;;;4.64;86.03
41254;BME280;26987;59.928;30.306;2023-04-05T10:23:27;102457.19;;;4.47;85.96
41254;BME280;26987;59.928;30.306;2023-04-05T10:26:07;102494.44;;;4.68;86.22
41254;BME280;26987;59.928;30.306;2023-04-05T10:28:42;102486.00;;;4.63;86.15
41254;BME280;26987;59.928;30.306;2023-04-05T10:31:34;102488.53;;;4.76;85.85
41254;BME280;26987;59.928;30.306;2023-04-05T10:34:19;102485.63;;;4.67;86.29
41254;BME280;26987;59.928;30.306;2023-04-05T10:36:49;102500.72;;;4.78;85.40
41254;BME280;26987;59.928;30.306;2023-04-05T10:39:22;102491.63;;;4.81;85.58
41254;BME280;26987;59.928;30.306;2023-04-05T10:41:59;102462.19;;;4.61;85.88
41254;BME280;26987;59.928;30.306;2023-04-05T10:44:29;102498.25;;;4.87;85.43
41254;BME280;26987;59.928;30.306;2023-04-05T10:46:59;102517.72;;;4.87;84.59
41254;BME280;26987;59.928;30.306;2023-04-05T10:49:31;102508.50;;;4.91;85.58
41254;BME280;26987;59.928;30.306;2023-04-05T10:52:01;102504.41;;;4.87;84.65
41254;BME280;26987;59.928;30.306;2023-04-05T10:54:31;102507.81;;;4.89;85.30
41254;BME280;26987;59.928;30.306;2023-04-05T10:57:02;102505.09;;;5.01;84.71
41254;BME280;26987;59.928;30.306;2023-04-05T10:59:31;102506.78;;;5.02;84.73
41254;BME280;26987;59.928;30.306;2023-04-05T11:02:00;102506.28;;;5.08;84.15
41254;BME280;26987;59.928;30.306;2023-04-05T11:04:28;102507.25;;;5.07;83.95
41254;BME280;26987;59.928;30.306;2023-04-05T11:07:13;102522.19;;;5.20;84.32
41254;BME280;26987;59.928;30.306;2023-04-05T11:09:54;102520.06;;;5.13;84.01
41254;BME280;26987;59.928;30.306;2023-04-05T11:15:30;102521.34;;;4.86;84.32
41254;BME280;26987;59.928;30.306;2023-04-05T11:18:02;102513.75;;;4.82;85.27
41254;BME280;26987;59.928;30.306;2023-04-05T11:20:44;102487.09;;;4.60;85.76
41254;BME280;26987;59.928;30.306;2023-04-05T11:23:14;102524.00;;;4.86;85.58
41254;BME280;26987;59.928;30.306;2023-04-05T11:25:47;102533.16;;;4.94;85.07
41254;BME280;26987;59.928;30.306;2023-04-05T11:28:23;102530.75;;;4.79;85.64
41254;BME280;26987;59.928;30.306;2023-04-05T11:30:53;102532.47;;;4.69;85.88
41254;BME280;26987;59.928;30.306;2023-04-05T11:33:37;102537.31;;;4.75;86.24
41254;BME280;26987;59.928;30.306;2023-04-05T11:36:05;102539.03;;;4.64;86.18
41254;BME280;26987;59.928;30.306;2023-04-05T11:38:34;102540.00;;;4.63;86.36
41254;BME280;26987;59.928;30.306;2023-04-05T11:41:05;102526.72;;;4.63;86.03
41254;BME280;26987;59.928;30.306;2023-04-05T11:43:33;102535.88;;;4.71;86.09
41254;BME280;26987;59.928;30.306;2023-04-05T11:46:05;102536.38;;;4.53;86.39
41254;BME280;26987;59.928;30.306;2023-04-05T11:48:32;102533.50;;;4.56;87.26
41254;BME280;26987;59.928;30.306;2023-04-05T11:51:06;102543.34;;;4.65;86.79
41254;BME280;26987;59.928;30.306;2023-04-05T11:53:36;102538.31;;;4.62;86.71
41254;BME280;26987;59.928;30.306;2023-04-05T11:56:08;102550.72;;;4.73;86.24
41254;BME280;26987;59.928;30.306;2023-04-05T11:58:38;102539.97;;;4.75;86.11
41254;BME280;26987;59.928;30.306;2023-04-05T12:01:08;102505.44;;;4.52;85.82
41254;BME280;26987;59.928;30.306;2023-04-05T12:03:36;102556.88;;;4.74;85.90
41254;BME280;26987;59.928;30.306;2023-04-05T12:06:05;102519.50;;;4.43;86.05
41254;BME280;26987;59.928;30.306;2023-04-05T12:08:40;102560.03;;;4.67;87.05
41254;BME280;26987;59.928;30.306;2023-04-05T12:11:09;102560.19;;;4.54;87.00
41254;BME280;26987;59.928;30.306;2023-04-05T12:13:37;102541.44;;;4.45;87.86
41254;BME280;26987;59.928;30.306;2023-04-05T12:16:08;102537.09;;;4.55;88.03
41254;BME280;26987;59.928;30.306;2023-04-05T12:18:36;102551.34;;;4.54;87.99
41254;BME280;26987;59.928;30.306;2023-04-05T12:21:06;102557.16;;;4.48;87.99
41254;BME280;26987;59.928;30.306;2023-04-05T12:23:35;102551.59;;;4.28;89.59
41254;BME280;26987;59.928;30.306;2023-04-05T12:26:06;102540.72;;;4.31;90.02
41254;BME280;26987;59.928;30.306;2023-04-05T12:28:49;102551.59;;;4.39;89.92
41254;BME280;26987;59.928;30.306;2023-04-05T12:31:34;102555.22;;;4.27;90.88
41254;BME280;26987;59.928;30.306;2023-04-05T12:34:02;102549.66;;;4.07;90.67
41254;BME280;26987;59.928;30.306;2023-04-05T12:36:30;102553.63;;;4.13;91.08
41254;BME280;26987;59.928;30.306;2023-04-05T12:38:58;102538.78;;;4.22;90.89
41254;BME280;26987;59.928;30.306;2023-04-05T12:41:26;102553.78;;;4.23;90.69
41254;BME280;26987;59.928;30.306;2023-04-05T12:43:55;102540.59;;;3.98;91.18
41254;BME280;26987;59.928;30.306;2023-04-05T12:46:39;102555.47;;;4.12;92.06
41254;BME280;26987;59.928;30.306;2023-04-05T12:49:10;102541.56;;;3.97;92.34
41254;BME280;26987;59.928;30.306;2023-04-05T12:51:40;102550.13;;;3.89;92.03
41254;BME280;26987;59.928;30.306;2023-04-05T12:54:11;102559.50;;;3.82;93.06
41254;BME280;26987;59.928;30.306;2023-04-05T12:56:39;102519.91;;;3.68;93.02
41254;BME280;26987;59.928;30.306;2023-04-05T12:59:07;102556.63;;;4.08;91.78
41254;BME280;26987;59.928;30.306;2023-04-05T13:01:36;102544.81;;;4.01;91.72
41254;BME280;26987;59.928;30.306;2023-04-05T13:04:05;102556.41;;;4.11;91.45
41254;BME280;26987;59.928;30.306;2023-04-05T13:06:33;102538.56;;;4.13;90.91